Time;durP1;ratioP1;P1;durP2;ratioP2;P2;SDS_P1;SDS_P2;PMS_P1;PMS_P2;Temp;Humidity;BMP_temperature;BMP_pressure;BME280_temperature;BME280_humidity;BME280_pressure;Samples;Min_cycle;Max_cycle;Signal;HPM_P1;HPM_P2
2023/09/07 00:00:11;;;;;;;4.07;2.50;;;26.60;83.10;;;;;;5106878;28;20035;-73
2023/09/07 00:02:37;;;;;;;4.15;2.72;;;26.80;82.90;;;;;;5087741;28;20395;-72
2023/09/07 00:05:06;;;;;;;4.68;2.85;;;26.80;83.50;;;;;;5074475;28;20044;-70
2023/09/07 00:07:32;;;;;;;5.32;2.80;;;26.70;83.10;;;;;;5084223;28;20074;-73
2023/09/07 00:09:58;;;;;;;5.45;2.95;;;25.30;81.70;;;;;;5110810;28;20063;-72
2023/09/07 00:12:24;;;;;;;7.05;2.90;;;26.60;82.70;;;;;;5095475;28;20482;-73
2023/09/07 00:14:51;;;;;;;5.20;2.67;;;26.80;83.50;;;;;;5070581;28;20416;-73
2023/09/07 00:17:17;;;;;;;4.30;2.58;;;27.30;83.30;;;;;;5098202;28;20048;-72
2023/09/07 00:19:43;;;;;;;5.75;2.78;;;26.70;83.40;;;;;;5106475;28;20028;-73
2023/09/07 00:22:09;;;;;;;5.43;3.08;;;26.70;83.50;;;;;;5108097;28;20047;-72
2023/09/07 00:24:35;;;;;;;5.10;2.90;;;26.80;83.70;;;;;;5094702;28;20503;-73
2023/09/07 00:27:05;;;;;;;5.28;2.67;;;26.80;83.70;;;;;;5105849;28;20558;-71
2023/09/07 00:29:31;;;;;;;5.60;2.95;;;26.50;82.80;;;;;;5108181;28;20055;-73
2023/09/07 00:31:57;;;;;;;6.65;2.90;;;26.50;82.90;;;;;;5097148;28;20467;-73
2023/09/07 00:34:23;;;;;;;6.88;3.10;;;25.80;82.40;;;;;;5091980;28;20550;-72
2023/09/07 00:36:49;;;;;;;5.13;2.78;;;26.80;82.70;;;;;;5111055;28;20067;-73
2023/09/07 00:39:14;;;;;;;4.80;2.83;;;26.40;83.20;;;;;;5089807;28;20404;-72
2023/09/07 00:41:40;;;;;;;4.45;2.95;;;26.60;82.80;;;;;;5111738;28;20506;-73
2023/09/07 00:44:07;;;;;;;5.97;2.83;;;26.50;83.30;;;;;;5073240;28;20101;-73
2023/09/07 00:46:33;;;;;;;5.07;3.05;;;26.50;83.10;;;;;;5107842;28;20055;-74
2023/09/07 00:48:59;;;;;;;4.68;3.00;;;26.50;82.70;;;;;;5086777;28;20036;-72
2023/09/07 00:51:25;;;;;;;6.47;2.85;;;26.30;82.70;;;;;;5102010;28;20036;-73
2023/09/07 00:53:51;;;;;;;4.63;2.85;;;26.60;82.70;;;;;;5074009;28;20443;-73
2023/09/07 00:56:17;;;;;;;4.60;2.72;;;26.40;83.30;;;;;;5087063;28;20095;-72
2023/09/07 00:58:43;;;;;;;4.60;2.60;;;26.70;83.50;;;;;;5079141;28;20405;-73
2023/09/07 01:01:09;;;;;;;5.47;2.80;;;26.40;82.80;;;;;;5095296;28;20047;-71
2023/09/07 01:03:35;;;;;;;4.50;2.80;;;26.60;82.50;;;;;;5101329;28;20031;-72
2023/09/07 01:06:20;;;;;;;4.85;3.00;;;26.40;82.90;;;;;;5097315;28;20044;-72
2023/09/07 01:08:48;;;;;;;5.45;3.10;;;26.40;81.40;;;;;;5088264;28;20053;-73
2023/09/07 01:11:18;;;;;;;5.65;2.90;;;26.40;82.50;;;;;;5084041;28;20379;-73
2023/09/07 01:13:44;;;;;;;5.97;3.15;;;26.60;82.80;;;;;;5077874;28;20059;-72
2023/09/07 01:16:10;;;;;;;4.88;2.75;;;26.00;82.10;;;;;;5061495;28;20052;-73
2023/09/07 01:18:37;;;;;;;4.70;2.80;;;26.90;83.00;;;;;;5048905;28;20036;-64
2023/09/07 01:21:10;;;;;;;4.75;2.85;;;26.40;82.60;;;;;;5059044;28;20046;-72
2023/09/07 01:23:36;;;;;;;4.88;2.90;;;26.30;82.60;;;;;;5077120;28;20042;-72
2023/09/07 01:26:03;;;;;;;5.85;3.30;;;26.20;82.20;;;;;;5079389;28;20040;-72
2023/09/07 01:28:29;;;;;;;5.47;3.00;;;26.50;82.90;;;;;;5053212;28;20043;-62
2023/09/07 01:30:54;;;;;;;6.60;2.95;;;26.30;82.20;;;;;;5095234;28;20378;-62
2023/09/07 01:33:20;;;;;;;5.53;3.20;;;26.40;82.30;;;;;;5077342;28;20222;-62
2023/09/07 01:35:46;;;;;;;6.18;3.08;;;26.30;82.20;;;;;;5095217;28;20044;-64
2023/09/07 01:38:12;;;;;;;5.38;2.88;;;26.30;82.30;;;;;;5060329;28;20040;-66
2023/09/07 01:40:37;;;;;;;4.93;3.13;;;26.20;85.20;;;;;;5100072;28;20043;-64
2023/09/07 01:43:03;;;;;;;5.85;2.92;;;26.30;82.20;;;;;;5102420;28;20064;-64
2023/09/07 01:45:29;;;;;;;4.85;3.08;;;26.50;82.40;;;;;;5080113;28;20063;-65
2023/09/07 01:47:55;;;;;;;5.15;3.00;;;26.60;82.40;;;;;;5078125;28;20040;-73
2023/09/07 01:50:21;;;;;;;4.75;3.20;;;26.10;82.60;;;;;;5085220;28;20052;-70
2023/09/07 01:52:50;;;;;;;5.78;3.30;;;26.20;82.10;;;;;;5092829;28;20047;-71
2023/09/07 01:55:16;;;;;;;4.70;3.05;;;26.40;82.40;;;;;;5114770;28;20051;-62
2023/09/07 01:57:42;;;;;;;6.57;2.92;;;26.30;81.70;;;;;;5109364;28;20040;-72
2023/09/07 02:00:09;;;;;;;5.20;3.10;;;26.30;82.20;;;;;;5111848;28;20043;-69
2023/09/07 02:02:37;;;;;;;5.82;2.85;;;25.80;81.50;;;;;;5105129;28;20039;-68
2023/09/07 02:05:04;;;;;;;4.82;3.10;;;25.10;79.90;;;;;;5084759;28;20378;-72
2023/09/07 02:07:30;;;;;;;4.70;3.13;;;26.20;81.70;;;;;;5102767;28;20036;-71
2023/09/07 02:09:55;;;;;;;4.28;2.88;;;26.30;82.10;;;;;;5114361;28;20051;-72
2023/09/07 02:12:21;;;;;;;5.07;3.08;;;26.20;82.00;;;;;;5105254;28;20063;-72
2023/09/07 02:14:47;;;;;;;5.38;3.17;;;26.10;81.90;;;;;;5096983;28;20051;-71
2023/09/07 02:17:17;;;;;;;5.00;3.33;;;26.40;81.90;;;;;;5109423;28;20352;-71
2023/09/07 02:19:44;;;;;;;5.13;3.35;;;26.10;82.10;;;;;;5111340;28;20043;-69
2023/09/07 02:22:10;;;;;;;5.05;3.25;;;26.40;82.50;;;;;;5103291;28;20097;-70
2023/09/07 02:24:36;;;;;;;5.50;3.13;;;26.30;82.60;;;;;;5062349;28;20040;-71
2023/09/07 02:27:02;;;;;;;5.47;3.00;;;26.20;82.20;;;;;;5062923;28;20054;-65
2023/09/07 02:29:27;;;;;;;5.88;3.00;;;26.10;82.00;;;;;;5104052;28;20112;-72
2023/09/07 02:31:54;;;;;;;4.85;3.20;;;26.50;82.50;;;;;;5087277;28;20523;-73
2023/09/07 02:34:19;;;;;;;6.68;2.95;;;26.30;82.80;;;;;;5093558;28;20050;-72
2023/09/07 02:36:45;;;;;;;5.43;3.03;;;26.20;82.90;;;;;;5090043;28;20039;-70
2023/09/07 02:39:11;;;;;;;5.22;3.33;;;26.50;82.40;;;;;;5078304;28;20478;-72
2023/09/07 02:41:38;;;;;;;5.85;3.15;;;26.50;83.10;;;;;;5059816;28;20051;-72
2023/09/07 02:44:04;;;;;;;6.00;3.22;;;26.20;82.70;;;;;;5099084;28;20036;-72
2023/09/07 02:46:30;;;;;;;7.22;3.05;;;26.00;81.80;;;;;;5088140;28;20036;-72
2023/09/07 02:48:57;;;;;;;4.70;3.08;;;26.10;82.30;;;;;;5075597;28;20113;-72
2023/09/07 02:51:26;;;;;;;4.68;3.08;;;26.00;82.30;;;;;;5072169;28;20048;-72
2023/09/07 02:53:54;;;;;;;4.97;3.40;;;25.40;81.90;;;;;;5108321;28;20488;-72
2023/09/07 02:56:19;;;;;;;5.05;3.20;;;26.10;83.00;;;;;;5110343;28;20085;-72
2023/09/07 02:58:45;;;;;;;5.38;3.10;;;26.60;83.30;;;;;;5101687;28;20514;-72
2023/09/07 03:01:13;;;;;;;7.03;3.47;;;25.80;82.70;;;;;;5096113;28;20125;-73
2023/09/07 03:03:41;;;;;;;6.25;3.30;;;26.10;83.00;;;;;;5103103;28;20500;-71
2023/09/07 03:06:13;;;;;;;4.72;3.15;;;26.10;82.40;;;;;;5105622;28;20080;-73
2023/09/07 03:08:43;;;;;;;4.90;3.15;;;26.10;82.60;;;;;;5111925;28;20058;-71
2023/09/07 03:11:09;;;;;;;4.68;3.13;;;25.90;82.60;;;;;;5094757;28;20047;-72
2023/09/07 03:13:35;;;;;;;4.80;3.17;;;26.60;82.70;;;;;;5111744;28;20046;-72
2023/09/07 03:16:02;;;;;;;4.38;2.90;;;26.20;82.90;;;;;;5074648;28;20054;-73
2023/09/07 03:18:28;;;;;;;5.35;2.80;;;26.10;83.50;;;;;;5098541;28;20399;-73
2023/09/07 03:20:55;;;;;;;5.18;3.20;;;26.10;82.40;;;;;;5094085;28;20143;-72
2023/09/07 03:23:22;;;;;;;4.60;3.10;;;26.10;85.40;;;;;;5082221;28;20052;-67
2023/09/07 03:25:48;;;;;;;4.45;3.20;;;26.10;82.30;;;;;;5070679;28;20052;-72
2023/09/07 03:28:14;;;;;;;4.40;2.92;;;26.00;81.70;;;;;;5065683;28;20572;-72
2023/09/07 03:30:40;;;;;;;5.80;3.25;;;27.70;83.10;;;;;;5074995;28;20055;-72
2023/09/07 03:33:06;;;;;;;4.93;3.10;;;25.90;83.00;;;;;;5057553;28;20048;-72
2023/09/07 03:35:32;;;;;;;6.28;3.47;;;26.30;83.30;;;;;;5082687;28;20040;-71
2023/09/07 03:37:58;;;;;;;5.32;3.25;;;26.80;82.80;;;;;;5062513;28;20040;-71
2023/09/07 03:40:24;;;;;;;5.38;3.60;;;26.60;83.00;;;;;;5064718;28;20065;-72
2023/09/07 03:42:50;;;;;;;4.70;3.10;;;26.00;82.50;;;;;;5113181;28;20047;-71
2023/09/07 03:45:16;;;;;;;5.25;3.33;;;25.80;82.00;;;;;;5111330;28;20032;-73
2023/09/07 03:47:42;;;;;;;5.25;3.40;;;26.00;82.10;;;;;;5101836;28;20040;-72
2023/09/07 03:50:08;;;;;;;4.40;3.10;;;25.90;82.20;;;;;;5108672;28;20112;-73
2023/09/07 03:52:34;;;;;;;4.72;3.22;;;25.80;81.90;;;;;;5090333;28;20043;-72
2023/09/07 03:55:00;;;;;;;6.22;3.55;;;25.80;82.70;;;;;;5112355;28;20039;-72
2023/09/07 03:57:27;;;;;;;4.70;3.17;;;25.80;82.40;;;;;;5087441;28;20472;-71
2023/09/07 03:59:55;;;;;;;5.20;3.22;;;25.80;82.80;;;;;;5043769;28;20088;-72
2023/09/07 04:02:21;;;;;;;4.25;3.10;;;26.00;82.60;;;;;;5083211;28;20077;-72
2023/09/07 04:04:51;;;;;;;5.30;3.33;;;25.90;82.70;;;;;;5083351;28;20158;-64
2023/09/07 04:07:17;;;;;;;5.20;3.17;;;25.80;82.70;;;;;;5093560;28;20104;-63
2023/09/07 04:09:43;;;;;;;4.72;3.20;;;25.80;82.30;;;;;;5099973;28;20111;-61
2023/09/07 04:12:09;;;;;;;5.05;3.47;;;25.70;82.50;;;;;;5091865;28;20047;-65
2023/09/07 04:14:35;;;;;;;5.03;3.40;;;25.80;85.70;;;;;;5096666;28;20050;-64
2023/09/07 04:17:01;;;;;;;4.95;3.00;;;25.70;82.20;;;;;;5104291;28;20056;-62
2023/09/07 04:19:27;;;;;;;4.50;3.15;;;25.70;82.00;;;;;;5092497;28;20051;-64
2023/09/07 04:21:53;;;;;;;5.10;3.10;;;25.80;81.90;;;;;;5091802;28;20046;-64
2023/09/07 04:24:19;;;;;;;4.70;3.20;;;25.50;82.20;;;;;;5094676;28;20047;-62
2023/09/07 04:26:45;;;;;;;5.72;3.20;;;26.00;82.50;;;;;;5106849;28;20043;-63
2023/09/07 04:29:12;;;;;;;5.60;3.40;;;25.90;86.00;;;;;;5112816;28;20043;-64
2023/09/07 04:31:38;;;;;;;5.45;3.53;;;25.70;82.60;;;;;;5109889;28;20052;-63
2023/09/07 04:34:04;;;;;;;6.05;3.42;;;25.80;82.40;;;;;;5112897;28;20124;-62
2023/09/07 04:36:30;;;;;;;5.85;3.35;;;25.30;82.00;;;;;;5103674;28;20543;-64
2023/09/07 04:38:56;;;;;;;4.88;3.40;;;25.60;82.40;;;;;;5101271;28;20040;-62
2023/09/07 04:41:22;;;;;;;5.38;3.50;;;25.70;82.30;;;;;;5085363;28;20079;-72
2023/09/07 04:43:48;;;;;;;4.57;3.13;;;25.70;83.10;;;;;;5096528;28;20051;-71
2023/09/07 04:46:16;;;;;;;4.88;3.00;;;25.50;82.60;;;;;;5079971;28;20123;-73
2023/09/07 04:48:43;;;;;;;4.25;3.03;;;25.80;82.80;;;;;;5107393;28;20055;-63
2023/09/07 04:51:09;;;;;;;7.53;2.90;;;25.70;82.70;;;;;;5088533;28;20083;-71
2023/09/07 04:53:36;;;;;;;4.85;3.10;;;25.60;82.70;;;;;;5096049;28;20163;-71
2023/09/07 04:56:03;;;;;;;4.95;3.42;;;25.50;82.80;;;;;;5082798;28;20054;-71
2023/09/07 04:58:29;;;;;;;6.32;3.90;;;25.60;82.80;;;;;;5092974;28;20123;-72
2023/09/07 05:01:00;;;;;;;5.40;3.30;;;25.80;82.80;;;;;;5115589;28;20120;-71
2023/09/07 05:03:26;;;;;;;5.37;3.37;;;25.50;82.80;;;;;;5106407;28;20481;-72
2023/09/07 05:05:53;;;;;;;6.97;3.47;;;25.40;83.60;;;;;;5108878;28;20046;-72
2023/09/07 05:08:19;;;;;;;4.90;3.20;;;25.50;82.70;;;;;;5061751;28;20082;-70
2023/09/07 05:10:45;;;;;;;6.72;3.55;;;25.70;82.80;;;;;;5084706;28;20040;-72
2023/09/07 05:13:11;;;;;;;5.25;3.10;;;25.90;83.20;;;;;;5070586;28;20039;-71
2023/09/07 05:15:37;;;;;;;5.72;3.30;;;25.60;82.80;;;;;;5104355;28;20618;-63
2023/09/07 05:18:05;;;;;;;5.40;3.20;;;25.60;82.40;;;;;;5096254;28;20036;-71
2023/09/07 05:20:31;;;;;;;5.40;3.10;;;25.50;82.70;;;;;;5056789;28;20052;-63
2023/09/07 05:22:59;;;;;;;5.97;3.40;;;25.50;82.50;;;;;;5086222;28;20051;-71
2023/09/07 05:25:25;;;;;;;4.63;3.22;;;25.70;82.50;;;;;;5075453;28;20381;-71
2023/09/07 05:27:51;;;;;;;6.35;3.63;;;25.60;82.50;;;;;;5115580;28;20115;-71
2023/09/07 05:30:17;;;;;;;5.72;3.20;;;26.00;82.80;;;;;;5077458;28;20131;-64
2023/09/07 05:32:43;;;;;;;6.50;3.45;;;25.90;82.60;;;;;;5085579;28;20032;-72
2023/09/07 05:35:10;;;;;;;5.35;3.20;;;25.90;85.70;;;;;;5044628;28;20040;-71
2023/09/07 05:37:36;;;;;;;4.63;3.35;;;26.00;82.70;;;;;;5079111;28;20389;-72
2023/09/07 05:40:03;;;;;;;5.15;3.28;;;24.20;81.10;;;;;;5037570;28;20462;-62
2023/09/07 05:42:29;;;;;;;6.32;3.47;;;25.80;82.10;;;;;;5056816;28;20051;-61
2023/09/07 05:44:55;;;;;;;10.50;4.47;;;25.90;82.20;;;;;;5059746;28;20045;-62
2023/09/07 05:47:21;;;;;;;11.90;5.30;;;26.30;82.00;;;;;;5042520;28;20130;-71
2023/09/07 05:49:47;;;;;;;10.13;5.70;;;26.10;81.10;;;;;;5043726;28;20055;-62
2023/09/07 05:52:12;;;;;;;13.30;5.50;;;26.20;80.40;;;;;;5040200;28;20047;-71
2023/09/07 05:54:38;;;;;;;7.97;5.40;;;26.40;80.20;;;;;;5099049;28;20412;-68
2023/09/07 05:57:04;;;;;;;7.90;5.70;;;26.10;79.90;;;;;;5099399;28;20071;-64
2023/09/07 05:59:30;;;;;;;9.00;5.60;;;25.90;79.20;;;;;;5094657;28;20036;-70
2023/09/07 06:01:56;;;;;;;7.32;5.72;;;26.00;79.70;;;;;;5105621;28;20051;-70
2023/09/07 06:04:25;;;;;;;7.82;5.60;;;24.60;78.50;;;;;;5096157;28;20068;-71
2023/09/07 06:06:51;;;;;;;8.40;5.72;;;26.30;80.00;;;;;;5077997;28;20139;-70
2023/09/07 06:09:17;;;;;;;7.80;5.75;;;26.00;80.30;;;;;;5083207;28;20394;-71
2023/09/07 06:11:43;;;;;;;7.88;5.78;;;25.80;79.70;;;;;;5100540;28;20504;-71
2023/09/07 06:14:12;;;;;;;8.65;6.22;;;25.90;79.20;;;;;;5100136;28;20104;-62
2023/09/07 06:16:39;;;;;;;9.40;5.88;;;26.00;78.90;;;;;;5096535;28;20048;-66
2023/09/07 06:19:06;;;;;;;8.02;6.50;;;26.10;79.40;;;;;;5098454;28;20088;-64
2023/09/07 06:21:32;;;;;;;6.93;6.15;;;25.90;79.40;;;;;;5107989;28;20147;-71
2023/09/07 06:23:58;;;;;;;7.32;6.13;;;26.00;79.20;;;;;;5075940;28;20052;-71
2023/09/07 06:26:23;;;;;;;10.13;6.10;;;26.20;79.40;;;;;;5109282;28;20055;-70
2023/09/07 06:28:49;;;;;;;8.02;6.55;;;26.20;79.40;;;;;;5088423;28;20042;-72
2023/09/07 06:31:15;;;;;;;8.55;6.63;;;26.10;79.50;;;;;;5100508;28;20071;-67
2023/09/07 06:33:41;;;;;;;7.95;6.38;;;27.60;80.30;;;;;;5106832;27;20116;-70
2023/09/07 06:36:07;;;;;;;7.35;5.93;;;26.30;79.70;;;;;;5090584;28;20241;-69
2023/09/07 06:38:36;;;;;;;11.05;5.75;;;26.50;79.50;;;;;;5095234;28;20049;-71
2023/09/07 06:41:02;;;;;;;7.72;5.68;;;26.80;78.80;;;;;;5110738;28;20187;-72
2023/09/07 06:43:30;;;;;;;6.65;4.40;;;26.40;78.60;;;;;;5114472;28;20077;-69
2023/09/07 06:46:10;;;;;;;7.45;5.60;;;26.60;79.10;;;;;;5112350;28;20043;-72
2023/09/07 06:48:43;;;;;;;8.57;5.03;;;26.40;77.10;;;;;;5042806;28;20050;-65
2023/09/07 06:51:09;;;;;;;8.15;4.63;;;26.80;79.30;;;;;;5060476;28;20090;-72
2023/09/07 06:53:36;;;;;;;6.88;4.85;;;27.10;78.20;;;;;;5058156;28;20080;-70
2023/09/07 06:56:03;;;;;;;8.63;5.10;;;26.80;78.80;;;;;;5075382;28;20501;-72
2023/09/07 06:58:29;;;;;;;9.55;5.47;;;27.30;78.20;;;;;;5093319;28;20101;-72
2023/09/07 07:01:01;;;;;;;7.68;6.20;;;27.10;78.10;;;;;;5093566;28;20396;-70
2023/09/07 07:03:29;;;;;;;7.75;5.22;;;27.20;78.10;;;;;;5074135;28;20036;-71
2023/09/07 07:05:55;;;;;;;10.20;6.20;;;27.50;78.10;;;;;;5058589;28;20544;-69
2023/09/07 07:08:26;;;;;;;8.23;6.03;;;27.50;78.10;;;;;;5040770;28;20086;-64
2023/09/07 07:11:05;;;;;;;8.32;5.82;;;27.40;77.00;;;;;;5072495;28;20043;-64
2023/09/07 07:13:31;;;;;;;8.85;5.72;;;27.30;77.30;;;;;;5077786;28;20043;-61
2023/09/07 07:15:57;;;;;;;7.45;5.30;;;27.50;77.20;;;;;;5082660;28;20064;-62
2023/09/07 07:18:23;;;;;;;8.82;5.60;;;27.80;77.10;;;;;;5083948;28;20044;-71
2023/09/07 07:20:50;;;;;;;8.82;5.53;;;27.80;77.40;;;;;;5081842;28;20043;-71
2023/09/07 07:23:16;;;;;;;12.13;5.40;;;27.70;77.20;;;;;;5089047;28;20036;-63
2023/09/07 07:25:42;;;;;;;8.48;5.40;;;27.80;77.30;;;;;;5083197;28;20052;-69
2023/09/07 07:28:08;;;;;;;7.07;5.28;;;27.60;76.60;;;;;;5079615;28;20424;-66
2023/09/07 07:30:36;;;;;;;6.50;5.15;;;27.80;77.20;;;;;;5077882;28;20869;-66
2023/09/07 07:33:03;;;;;;;7.18;5.30;;;28.00;77.10;;;;;;5082965;28;20127;-63
2023/09/07 07:35:34;;;;;;;8.02;5.75;;;28.20;76.90;;;;;;5086969;28;20044;-68
2023/09/07 07:38:01;;;;;;;7.68;5.47;;;28.00;76.70;;;;;;5089925;28;20129;-61
2023/09/07 07:40:26;;;;;;;8.80;6.05;;;28.20;76.70;;;;;;5090590;28;20052;-63
2023/09/07 07:42:52;;;;;;;10.15;7.55;;;28.10;76.10;;;;;;5092055;28;20036;-72
2023/09/07 07:45:24;;;;;;;10.75;6.95;;;27.90;76.50;;;;;;5084427;28;20098;-70
2023/09/07 07:47:50;;;;;;;12.00;6.82;;;28.10;76.20;;;;;;5088362;28;20040;-71
2023/09/07 07:50:16;;;;;;;11.45;7.07;;;28.20;76.50;;;;;;5077638;28;20050;-68
2023/09/07 07:52:42;;;;;;;10.15;6.85;;;28.00;76.80;;;;;;5082457;28;20039;-71
2023/09/07 07:55:09;;;;;;;8.18;6.80;;;27.90;76.70;;;;;;5072119;28;20043;-71
2023/09/07 07:57:35;;;;;;;7.40;5.85;;;27.80;76.10;;;;;;5079472;28;20463;-72
2023/09/07 08:00:03;;;;;;;8.40;5.43;;;27.80;76.10;;;;;;5082362;28;20561;-72
2023/09/07 08:02:30;;;;;;;8.23;5.45;;;27.90;76.10;;;;;;5086111;28;20478;-72
2023/09/07 08:04:58;;;;;;;10.13;6.43;;;28.30;76.80;;;;;;5091363;28;20048;-70
2023/09/07 08:07:25;;;;;;;8.60;5.97;;;28.50;77.00;;;;;;5089328;28;20420;-71
2023/09/07 08:09:51;;;;;;;10.45;5.90;;;28.30;76.20;;;;;;5073065;28;20116;-71
2023/09/07 08:12:17;;;;;;;8.95;6.47;;;28.40;76.30;;;;;;5076315;28;20939;-71
2023/09/07 08:14:43;;;;;;;8.02;5.75;;;28.40;76.00;;;;;;5081601;28;20414;-71
2023/09/07 08:17:09;;;;;;;9.75;6.15;;;28.10;75.30;;;;;;5099453;28;20055;-72
2023/09/07 08:19:35;;;;;;;8.35;5.50;;;28.70;76.30;;;;;;5108680;28;20043;-72
2023/09/07 08:22:04;;;;;;;7.70;5.80;;;29.30;76.80;;;;;;5108600;28;20396;-71
2023/09/07 08:24:30;;;;;;;9.52;5.95;;;28.40;75.00;;;;;;5077781;28;20040;-72
2023/09/07 08:26:57;;;;;;;10.15;6.50;;;28.70;75.90;;;;;;5074352;28;20532;-71
2023/09/07 08:29:26;;;;;;;7.93;5.63;;;28.90;76.40;;;;;;5094166;28;20086;-61
2023/09/07 08:31:53;;;;;;;9.05;5.30;;;28.70;75.60;;;;;;5102924;28;20054;-70
2023/09/07 08:34:20;;;;;;;8.48;6.10;;;28.70;75.80;;;;;;5092296;28;20449;-71
2023/09/07 08:36:47;;;;;;;10.90;6.68;;;28.70;75.70;;;;;;5109263;28;20040;-68
2023/09/07 08:39:13;;;;;;;10.02;6.18;;;28.80;75.20;;;;;;5071926;28;20043;-70
2023/09/07 08:41:43;;;;;;;8.60;5.85;;;28.90;75.30;;;;;;5059922;28;20492;-71
2023/09/07 08:44:19;;;;;;;11.25;5.80;;;28.60;74.90;;;;;;5071179;28;20089;-71
2023/09/07 08:46:45;;;;;;;9.50;7.25;;;28.60;75.30;;;;;;5091575;28;20036;-71
2023/09/07 08:49:11;;;;;;;12.52;6.63;;;28.60;74.70;;;;;;5098453;28;20497;-71
2023/09/07 08:51:38;;;;;;;9.40;6.05;;;28.70;74.50;;;;;;5074634;28;20044;-67
2023/09/07 08:54:05;;;;;;;7.45;6.00;;;28.70;74.40;;;;;;5106777;28;20451;-71
2023/09/07 08:56:31;;;;;;;11.65;6.53;;;28.70;74.10;;;;;;5100981;28;20051;-72
2023/09/07 08:58:57;;;;;;;9.20;6.03;;;28.80;73.90;;;;;;5092603;28;20031;-70
2023/09/07 09:01:23;;;;;;;11.57;6.03;;;28.60;73.90;;;;;;5074677;28;20131;-69
2023/09/07 09:03:50;;;;;;;9.48;5.88;;;28.70;74.60;;;;;;5055066;28;20485;-71
2023/09/07 09:06:20;;;;;;;9.82;6.03;;;28.90;74.20;;;;;;5088754;28;20039;-71
2023/09/07 09:08:55;;;;;;;9.93;6.00;;;27.90;73.80;;;;;;5090423;28;20118;-69
2023/09/07 09:11:22;;;;;;;9.50;5.93;;;29.00;74.20;;;;;;5110505;28;20075;-70
2023/09/07 09:13:49;;;;;;;8.90;5.55;;;28.60;73.50;;;;;;5075717;28;20659;-63
2023/09/07 09:16:15;;;;;;;10.52;6.45;;;28.60;73.30;;;;;;5083082;28;20040;-61
2023/09/07 09:18:54;;;;;;;8.10;5.78;;;28.50;73.00;;;;;;5068856;28;20047;-70
2023/09/07 09:21:24;;;;;;;11.57;6.22;;;28.30;71.50;;;;;;5035948;28;20067;-71
2023/09/07 09:23:51;;;;;;;8.27;5.80;;;28.70;73.40;;;;;;5059421;28;20048;-71
2023/09/07 09:26:17;;;;;;;12.48;6.32;;;28.40;73.00;;;;;;5095634;28;20110;-71
2023/09/07 09:28:46;;;;;;;10.02;6.20;;;28.20;73.20;;;;;;5076938;28;20393;-69
2023/09/07 09:31:13;;;;;;;11.02;6.30;;;28.20;72.40;;;;;;5087360;28;20047;-71
2023/09/07 09:33:39;;;;;;;9.73;5.90;;;28.60;73.20;;;;;;5079031;28;20071;-71
2023/09/07 09:36:06;;;;;;;7.32;6.00;;;28.30;73.30;;;;;;5114451;28;20188;-71
2023/09/07 09:38:33;;;;;;;10.80;5.80;;;28.40;73.30;;;;;;5079922;28;20052;-68
2023/09/07 09:40:59;;;;;;;7.60;5.82;;;28.30;73.00;;;;;;5052313;28;20042;-70
2023/09/07 09:43:25;;;;;;;9.75;6.10;;;28.20;72.60;;;;;;5093224;28;20043;-69
2023/09/07 09:45:52;;;;;;;6.57;5.40;;;28.70;73.20;;;;;;5076741;28;20060;-71
2023/09/07 09:48:19;;;;;;;9.27;6.45;;;28.20;73.20;;;;;;5096934;28;20527;-70
2023/09/07 09:50:48;;;;;;;9.25;5.53;;;28.70;73.60;;;;;;5073189;28;20063;-70
2023/09/07 09:53:18;;;;;;;9.82;5.65;;;28.70;72.90;;;;;;5067874;28;20054;-70
2023/09/07 09:55:48;;;;;;;8.38;5.70;;;28.10;72.60;;;;;;5045726;28;20059;-70
2023/09/07 09:58:14;;;;;;;13.10;5.88;;;28.20;72.50;;;;;;5114992;28;20035;-69
2023/09/07 10:00:56;;;;;;;8.82;5.68;;;28.30;72.60;;;;;;5110690;28;20052;-71
2023/09/07 10:03:30;;;;;;;9.25;5.80;;;28.50;71.30;;;;;;5084725;28;20415;-69
2023/09/07 10:05:56;;;;;;;7.45;5.45;;;28.20;70.90;;;;;;5105007;28;20044;-69
2023/09/07 10:08:25;;;;;;;7.85;5.50;;;30.30;73.70;;;;;;5086838;28;20039;-72
2023/09/07 10:10:54;;;;;;;7.82;5.38;;;28.50;71.30;;;;;;5109238;28;20036;-71
2023/09/07 10:13:35;;;;;;;9.02;5.50;;;28.20;72.10;;;;;;5104357;28;20035;-71
2023/09/07 10:16:09;;;;;;;8.40;5.40;;;28.60;72.10;;;;;;5094857;28;20136;-71
2023/09/07 10:18:36;;;;;;;9.00;5.60;;;28.90;70.80;;;;;;5114745;28;20433;-71
2023/09/07 10:21:02;;;;;;;7.72;4.75;;;28.50;72.20;;;;;;5111653;28;20108;-71
2023/09/07 10:23:41;;;;;;;9.50;5.40;;;28.60;71.80;;;;;;5061165;28;20040;-71
2023/09/07 10:26:17;;;;;;;8.13;5.05;;;28.60;71.90;;;;;;5106868;28;20416;-71
2023/09/07 10:28:43;;;;;;;7.72;5.47;;;31.10;73.60;;;;;;5107972;28;20044;-71
2023/09/07 10:31:19;;;;;;;7.97;5.57;;;29.00;72.70;;;;;;5092902;28;20516;-70
2023/09/07 10:33:46;;;;;;;8.48;6.22;;;26.80;68.90;;;;;;5075493;28;20032;-69
2023/09/07 10:36:27;;;;;;;7.80;5.28;;;28.80;71.70;;;;;;5101275;28;20400;-71
2023/09/07 10:38:55;;;;;;;7.53;5.68;;;27.30;71.10;;;;;;5084732;28;20505;-70
2023/09/07 10:41:20;;;;;;;11.05;6.00;;;28.80;72.00;;;;;;5099087;28;20063;-71
2023/09/07 10:43:48;;;;;;;9.02;5.57;;;28.80;71.60;;;;;;5085349;28;20431;-71
2023/09/07 10:46:14;;;;;;;9.20;5.15;;;29.10;72.30;;;;;;5103184;28;20993;-71
2023/09/07 10:48:40;;;;;;;7.07;5.57;;;28.80;71.90;;;;;;5076057;28;20469;-69
2023/09/07 10:51:06;;;;;;;8.52;6.22;;;29.10;72.00;;;;;;5093086;28;20133;-71
2023/09/07 10:53:32;;;;;;;9.52;5.40;;;28.90;71.80;;;;;;5108976;28;20071;-69
2023/09/07 10:56:04;;;;;;;7.68;6.00;;;28.80;71.50;;;;;;5098638;28;20048;-70
2023/09/07 10:58:32;;;;;;;8.05;5.75;;;29.20;72.10;;;;;;5110852;28;20481;-70
2023/09/07 11:00:58;;;;;;;8.68;6.03;;;28.80;71.80;;;;;;5092573;28;20832;-71
2023/09/07 11:03:26;;;;;;;8.23;5.40;;;28.80;71.40;;;;;;5102699;28;20374;-69
2023/09/07 11:05:53;;;;;;;10.10;6.25;;;29.80;72.10;;;;;;5101631;28;20044;-71
2023/09/07 11:08:19;;;;;;;8.75;5.85;;;29.20;71.80;;;;;;5049501;28;20544;-71
2023/09/07 11:10:45;;;;;;;9.57;5.78;;;28.90;71.30;;;;;;5057954;28;20128;-71
2023/09/07 11:13:11;;;;;;;7.28;5.35;;;28.90;71.30;;;;;;5047024;28;20085;-71
2023/09/07 11:15:39;;;;;;;9.20;6.05;;;29.20;71.70;;;;;;5045819;28;20067;-71
2023/09/07 11:18:08;;;;;;;10.05;6.22;;;29.30;71.70;;;;;;5053796;28;20056;-62
2023/09/07 11:20:39;;;;;;;7.28;5.70;;;28.90;71.10;;;;;;5055271;28;20040;-61
2023/09/07 11:23:05;;;;;;;9.60;5.57;;;29.00;71.40;;;;;;5061070;28;20517;-61
2023/09/07 11:25:38;;;;;;;8.20;5.47;;;29.00;70.90;;;;;;5077049;28;20033;-70
2023/09/07 11:28:04;;;;;;;13.48;5.80;;;29.10;71.10;;;;;;5056718;28;20044;-62
2023/09/07 11:30:30;;;;;;;8.18;5.38;;;29.40;70.60;;;;;;5066919;28;20124;-69
2023/09/07 11:33:06;;;;;;;7.78;5.30;;;29.40;70.70;;;;;;5072749;28;20048;-69
2023/09/07 11:35:33;;;;;;;8.90;5.60;;;29.40;69.30;;;;;;5037311;28;20044;-71
2023/09/07 11:38:00;;;;;;;8.23;5.45;;;29.60;70.90;;;;;;5057085;28;20033;-69
2023/09/07 11:40:26;;;;;;;8.75;5.03;;;29.10;70.20;;;;;;5030529;28;20082;-70
2023/09/07 11:42:52;;;;;;;7.50;5.47;;;29.60;70.10;;;;;;5062254;28;20051;-62
2023/09/07 11:45:19;;;;;;;7.95;5.68;;;29.50;69.50;;;;;;5056691;28;20044;-73
2023/09/07 11:47:45;;;;;;;7.00;5.43;;;29.60;70.30;;;;;;5084809;28;20048;-70
2023/09/07 11:50:11;;;;;;;9.90;5.43;;;29.70;70.10;;;;;;5069526;28;20036;-71
2023/09/07 11:52:37;;;;;;;7.18;5.50;;;29.60;69.90;;;;;;5081164;28;20075;-71
2023/09/07 11:55:04;;;;;;;8.68;5.65;;;30.30;70.80;;;;;;5090915;28;20044;-71
2023/09/07 11:57:30;;;;;;;6.75;5.50;;;29.80;69.80;;;;;;5087844;28;20119;-71
2023/09/07 11:59:57;;;;;;;8.77;5.10;;;29.60;70.70;;;;;;5054045;28;20071;-71
2023/09/07 12:02:23;;;;;;;10.40;5.40;;;29.60;69.30;;;;;;5071542;28;20098;-70
2023/09/07 12:04:49;;;;;;;7.57;5.25;;;29.50;69.80;;;;;;5072505;28;20392;-71
2023/09/07 12:07:18;;;;;;;8.75;5.53;;;29.30;69.50;;;;;;5086143;28;20477;-70
2023/09/07 12:09:44;;;;;;;7.00;5.32;;;29.40;70.40;;;;;;5083851;28;20039;-72
2023/09/07 12:12:10;;;;;;;7.25;5.30;;;29.50;70.40;;;;;;5069021;28;20500;-71
2023/09/07 12:14:36;;;;;;;6.45;4.90;;;29.60;70.60;;;;;;5037390;28;20044;-72
2023/09/07 12:17:03;;;;;;;9.68;5.50;;;28.30;69.40;;;;;;5091192;28;20112;-71
2023/09/07 12:19:29;;;;;;;12.70;5.70;;;29.80;70.40;;;;;;5088512;28;20043;-71
2023/09/07 12:21:55;;;;;;;9.05;5.47;;;29.60;70.60;;;;;;5084882;28;20044;-69
2023/09/07 12:24:21;;;;;;;8.15;5.60;;;27.70;69.00;;;;;;5091780;28;20127;-69
2023/09/07 12:26:51;;;;;;;6.35;5.35;;;29.70;69.90;;;;;;5084224;28;20147;-69
2023/09/07 12:29:17;;;;;;;6.75;5.40;;;30.20;70.70;;;;;;5082960;28;20052;-69
2023/09/07 12:31:43;;;;;;;7.03;5.20;;;29.50;69.40;;;;;;5078297;28;20087;-70
2023/09/07 12:34:09;;;;;;;11.10;5.80;;;29.60;70.30;;;;;;5071790;28;20037;-68
2023/09/07 12:36:35;;;;;;;10.90;5.72;;;28.20;69.10;;;;;;5089312;28;20147;-69
2023/09/07 12:39:03;;;;;;;7.72;5.50;;;29.90;70.20;;;;;;5077768;28;20048;-71
2023/09/07 12:41:30;;;;;;;10.23;5.35;;;29.70;69.70;;;;;;5079122;28;20437;-71
2023/09/07 12:43:57;;;;;;;9.30;5.38;;;29.70;70.30;;;;;;5088959;28;20409;-62